sensor_id;sensor_type;location;lat;lon;timestamp;temperature;humidity
70336;SHT31;57756;47.408;18.940;2023-04-25T00:01:38;11.99;86.57
70336;SHT31;57756;47.408;18.940;2023-04-25T00:04:04;11.97;86.53
70336;SHT31;57756;47.408;18.940;2023-04-25T00:06:34;11.99;86.63
70336;SHT31;57756;47.408;18.940;2023-04-25T00:09:05;11.94;86.65
70336;SHT31;57756;47.408;18.940;2023-04-25T00:11:34;11.92;86.67
70336;SHT31;57756;47.408;18.940;2023-04-25T00:13:59;11.93;86.88
70336;SHT31;57756;47.408;18.940;2023-04-25T00:16:27;11.94;87.03
70336;SHT31;57756;47.408;18.940;2023-04-25T00:18:54;11.90;86.84
70336;SHT31;57756;47.408;18.940;2023-04-25T00:21:20;11.92;86.59
70336;SHT31;57756;47.408;18.940;2023-04-25T00:23:46;11.96;86.54
70336;SHT31;57756;47.408;18.940;2023-04-25T00:26:12;11.92;86.62
70336;SHT31;57756;47.408;18.940;2023-04-25T00:28:38;11.89;86.44
70336;SHT31;57756;47.408;18.940;2023-04-25T00:31:03;11.89;86.68
70336;SHT31;57756;47.408;18.940;2023-04-25T00:33:29;11.89;86.63
70336;SHT31;57756;47.408;18.940;2023-04-25T00:35:55;11.87;86.83
70336;SHT31;57756;47.408;18.940;2023-04-25T00:38:21;11.93;86.72
70336;SHT31;57756;47.408;18.940;2023-04-25T00:40:47;11.87;87.01
70336;SHT31;57756;47.408;18.940;2023-04-25T00:43:12;11.92;86.99
70336;SHT31;57756;47.408;18.940;2023-04-25T00:45:39;11.86;87.23
70336;SHT31;57756;47.408;18.940;2023-04-25T00:48:04;11.81;87.51
70336;SHT31;57756;47.408;18.940;2023-04-25T00:50:30;11.79;87.75
70336;SHT31;57756;47.408;18.940;2023-04-25T00:52:57;11.78;87.94
70336;SHT31;57756;47.408;18.940;2023-04-25T00:55:23;11.78;88.08
70336;SHT31;57756;47.408;18.940;2023-04-25T00:57:49;11.75;88.22
70336;SHT31;57756;47.408;18.940;2023-04-25T01:00:15;11.73;88.63
70336;SHT31;57756;47.408;18.940;2023-04-25T01:02:41;11.69;88.62
70336;SHT31;57756;47.408;18.940;2023-04-25T01:05:07;11.73;88.51
70336;SHT31;57756;47.408;18.940;2023-04-25T01:07:34;11.65;88.36
70336;SHT31;57756;47.408;18.940;2023-04-25T01:10:00;11.65;88.41
70336;SHT31;57756;47.408;18.940;2023-04-25T01:12:26;11.65;88.43
70336;SHT31;57756;47.408;18.940;2023-04-25T01:14:51;11.63;87.82
70336;SHT31;57756;47.408;18.940;2023-04-25T01:17:19;11.63;87.53
70336;SHT31;57756;47.408;18.940;2023-04-25T01:19:45;11.66;87.40
70336;SHT31;57756;47.408;18.940;2023-04-25T01:22:14;11.62;87.30
70336;SHT31;57756;47.408;18.940;2023-04-25T01:24:40;11.66;86.75
70336;SHT31;57756;47.408;18.940;2023-04-25T01:27:07;11.66;86.57
70336;SHT31;57756;47.408;18.940;2023-04-25T01:29:32;11.66;86.27
70336;SHT31;57756;47.408;18.940;2023-04-25T01:31:58;11.69;85.90
70336;SHT31;57756;47.408;18.940;2023-04-25T01:34:24;11.65;85.70
70336;SHT31;57756;47.408;18.940;2023-04-25T01:36:51;11.69;85.54
70336;SHT31;57756;47.408;18.940;2023-04-25T01:39:17;11.72;84.64
70336;SHT31;57756;47.408;18.940;2023-04-25T01:41:43;11.71;84.86
70336;SHT31;57756;47.408;18.940;2023-04-25T01:44:09;11.69;84.48
70336;SHT31;57756;47.408;18.940;2023-04-25T01:46:34;11.66;84.39
70336;SHT31;57756;47.408;18.940;2023-04-25T01:49:00;11.65;84.28
70336;SHT31;57756;47.408;18.940;2023-04-25T01:51:26;11.68;83.91
70336;SHT31;57756;47.408;18.940;2023-04-25T01:53:52;11.69;83.37
70336;SHT31;57756;47.408;18.940;2023-04-25T01:56:18;11.65;83.42
70336;SHT31;57756;47.408;18.940;2023-04-25T01:58:43;11.62;83.45
70336;SHT31;57756;47.408;18.940;2023-04-25T02:01:10;11.63;83.57
70336;SHT31;57756;47.408;18.940;2023-04-25T02:03:35;11.62;83.55
70336;SHT31;57756;47.408;18.940;2023-04-25T02:06:01;11.61;83.69
70336;SHT31;57756;47.408;18.940;2023-04-25T02:08:27;11.62;83.11
70336;SHT31;57756;47.408;18.940;2023-04-25T02:10:52;11.62;83.28
70336;SHT31;57756;47.408;18.940;2023-04-25T02:13:18;11.59;83.08
70336;SHT31;57756;47.408;18.940;2023-04-25T02:15:43;11.58;82.93
70336;SHT31;57756;47.408;18.940;2023-04-25T02:18:09;11.59;83.57
70336;SHT31;57756;47.408;18.940;2023-04-25T02:20:36;11.59;82.82
70336;SHT31;57756;47.408;18.940;2023-04-25T02:23:02;11.54;83.16
70336;SHT31;57756;47.408;18.940;2023-04-25T02:25:27;11.52;82.92
70336;SHT31;57756;47.408;18.940;2023-04-25T02:27:53;11.45;83.13
70336;SHT31;57756;47.408;18.940;2023-04-25T02:30:19;11.46;82.71
70336;SHT31;57756;47.408;18.940;2023-04-25T02:32:44;11.44;82.97
70336;SHT31;57756;47.408;18.940;2023-04-25T02:35:10;11.44;82.77
70336;SHT31;57756;47.408;18.940;2023-04-25T02:37:37;11.44;82.53
70336;SHT31;57756;47.408;18.940;2023-04-25T02:40:03;11.45;82.46
70336;SHT31;57756;47.408;18.940;2023-04-25T02:42:29;11.44;82.56
70336;SHT31;57756;47.408;18.940;2023-04-25T02:44:55;11.42;82.76
70336;SHT31;57756;47.408;18.940;2023-04-25T02:47:21;11.39;82.45
70336;SHT31;57756;47.408;18.940;2023-04-25T02:49:46;11.35;82.65
70336;SHT31;57756;47.408;18.940;2023-04-25T02:52:12;11.35;82.16
70336;SHT31;57756;47.408;18.940;2023-04-25T02:54:39;11.35;82.15
70336;SHT31;57756;47.408;18.940;2023-04-25T02:57:05;11.34;82.23
70336;SHT31;57756;47.408;18.940;2023-04-25T02:59:30;11.35;82.30
70336;SHT31;57756;47.408;18.940;2023-04-25T03:01:56;11.25;82.17
70336;SHT31;57756;47.408;18.940;2023-04-25T03:04:21;11.28;82.20
70336;SHT31;57756;47.408;18.940;2023-04-25T03:06:49;11.21;82.29
70336;SHT31;57756;47.408;18.940;2023-04-25T03:09:14;11.20;82.36
70336;SHT31;57756;47.408;18.940;2023-04-25T03:11:40;11.17;82.36
70336;SHT31;57756;47.408;18.940;2023-04-25T03:14:05;11.14;82.49
70336;SHT31;57756;47.408;18.940;2023-04-25T03:16:31;11.14;82.50
70336;SHT31;57756;47.408;18.940;2023-04-25T03:18:57;11.10;82.61
70336;SHT31;57756;47.408;18.940;2023-04-25T03:21:22;11.11;82.58
70336;SHT31;57756;47.408;18.940;2023-04-25T03:23:48;11.08;82.66
70336;SHT31;57756;47.408;18.940;2023-04-25T03:26:13;11.08;83.13
70336;SHT31;57756;47.408;18.940;2023-04-25T03:28:39;11.04;82.71
70336;SHT31;57756;47.408;18.940;2023-04-25T03:31:05;10.99;83.26
70336;SHT31;57756;47.408;18.940;2023-04-25T03:33:31;10.95;83.57
70336;SHT31;57756;47.408;18.940;2023-04-25T03:35:57;10.93;83.49
70336;SHT31;57756;47.408;18.940;2023-04-25T03:38:22;10.92;83.62
70336;SHT31;57756;47.408;18.940;2023-04-25T03:40:48;10.84;83.98
70336;SHT31;57756;47.408;18.940;2023-04-25T03:43:13;10.89;83.85
70336;SHT31;57756;47.408;18.940;2023-04-25T03:45:39;10.81;83.94
70336;SHT31;57756;47.408;18.940;2023-04-25T03:48:05;10.79;84.38
70336;SHT31;57756;47.408;18.940;2023-04-25T03:50:31;10.81;84.28
70336;SHT31;57756;47.408;18.940;2023-04-25T03:52:56;10.76;84.42
70336;SHT31;57756;47.408;18.940;2023-04-25T03:55:21;10.79;84.61
70336;SHT31;57756;47.408;18.940;2023-04-25T03:57:47;10.72;84.49
70336;SHT31;57756;47.408;18.940;2023-04-25T04:00:13;10.73;84.80
70336;SHT31;57756;47.408;18.940;2023-04-25T04:02:39;10.77;84.84
70336;SHT31;57756;47.408;18.940;2023-04-25T04:05:04;10.75;84.80
70336;SHT31;57756;47.408;18.940;2023-04-25T04:07:31;10.77;84.51
70336;SHT31;57756;47.408;18.940;2023-04-25T04:09:58;10.73;84.84
70336;SHT31;57756;47.408;18.940;2023-04-25T04:12:24;10.73;84.97
70336;SHT31;57756;47.408;18.940;2023-04-25T04:14:49;10.70;84.83
70336;SHT31;57756;47.408;18.940;2023-04-25T04:17:15;10.75;85.26
70336;SHT31;57756;47.408;18.940;2023-04-25T04:19:41;10.75;85.62
70336;SHT31;57756;47.408;18.940;2023-04-25T04:22:06;10.75;85.62
70336;SHT31;57756;47.408;18.940;2023-04-25T04:24:32;10.72;86.50
70336;SHT31;57756;47.408;18.940;2023-04-25T04:26:58;10.75;86.30
70336;SHT31;57756;47.408;18.940;2023-04-25T04:29:24;10.68;86.67
70336;SHT31;57756;47.408;18.940;2023-04-25T04:31:50;10.65;87.33
70336;SHT31;57756;47.408;18.940;2023-04-25T04:34:17;10.59;87.87
70336;SHT31;57756;47.408;18.940;2023-04-25T04:36:44;10.58;87.98
70336;SHT31;57756;47.408;18.940;2023-04-25T04:39:11;10.50;88.39
70336;SHT31;57756;47.408;18.940;2023-04-25T04:41:37;10.48;89.12
70336;SHT31;57756;47.408;18.940;2023-04-25T04:44:03;10.48;89.31
70336;SHT31;57756;47.408;18.940;2023-04-25T04:46:29;10.38;90.12
70336;SHT31;57756;47.408;18.940;2023-04-25T04:48:55;10.39;90.51
70336;SHT31;57756;47.408;18.940;2023-04-25T04:51:21;10.27;90.94
70336;SHT31;57756;47.408;18.940;2023-04-25T04:53:47;10.18;91.08
70336;SHT31;57756;47.408;18.940;2023-04-25T04:56:12;10.20;91.60
70336;SHT31;57756;47.408;18.940;2023-04-25T04:58:38;10.08;92.70
70336;SHT31;57756;47.408;18.940;2023-04-25T05:01:03;10.05;92.57
70336;SHT31;57756;47.408;18.940;2023-04-25T05:03:29;10.01;93.64
70336;SHT31;57756;47.408;18.940;2023-04-25T05:05:54;10.00;93.16
70336;SHT31;57756;47.408;18.940;2023-04-25T05:08:20;9.98;93.79
70336;SHT31;57756;47.408;18.940;2023-04-25T05:10:45;9.84;94.61
70336;SHT31;57756;47.408;18.940;2023-04-25T05:13:11;9.82;94.36
70336;SHT31;57756;47.408;18.940;2023-04-25T05:15:37;9.76;94.89
70336;SHT31;57756;47.408;18.940;2023-04-25T05:18:02;9.77;95.07
70336;SHT31;57756;47.408;18.940;2023-04-25T05:20:28;9.74;95.86
70336;SHT31;57756;47.408;18.940;2023-04-25T05:22:53;9.70;95.66
70336;SHT31;57756;47.408;18.940;2023-04-25T05:25:19;9.76;95.97
70336;SHT31;57756;47.408;18.940;2023-04-25T05:27:44;9.64;95.80
70336;SHT31;57756;47.408;18.940;2023-04-25T05:30:10;9.70;95.64
70336;SHT31;57756;47.408;18.940;2023-04-25T05:32:36;9.66;96.23
70336;SHT31;57756;47.408;18.940;2023-04-25T05:35:02;9.73;96.40
70336;SHT31;57756;47.408;18.940;2023-04-25T05:37:28;9.72;96.26
70336;SHT31;57756;47.408;18.940;2023-04-25T05:39:55;9.64;96.24
70336;SHT31;57756;47.408;18.940;2023-04-25T05:42:21;9.66;96.82
70336;SHT31;57756;47.408;18.940;2023-04-25T05:44:46;9.59;96.26
70336;SHT31;57756;47.408;18.940;2023-04-25T05:47:12;9.72;96.63
70336;SHT31;57756;47.408;18.940;2023-04-25T05:49:37;9.70;97.17
70336;SHT31;57756;47.408;18.940;2023-04-25T05:52:03;9.76;97.14
70336;SHT31;57756;47.408;18.940;2023-04-25T05:54:29;9.80;96.56
70336;SHT31;57756;47.408;18.940;2023-04-25T05:56:56;9.77;96.64
70336;SHT31;57756;47.408;18.940;2023-04-25T05:59:21;9.83;96.92
70336;SHT31;57756;47.408;18.940;2023-04-25T06:01:47;9.93;97.25
70336;SHT31;57756;47.408;18.940;2023-04-25T06:04:12;9.90;96.52
70336;SHT31;57756;47.408;18.940;2023-04-25T06:06:38;9.97;96.31
70336;SHT31;57756;47.408;18.940;2023-04-25T06:09:03;10.11;96.41
70336;SHT31;57756;47.408;18.940;2023-04-25T06:11:29;10.18;96.47
70336;SHT31;57756;47.408;18.940;2023-04-25T06:13:55;10.22;96.18
70336;SHT31;57756;47.408;18.940;2023-04-25T06:16:20;10.24;95.20
70336;SHT31;57756;47.408;18.940;2023-04-25T06:18:46;10.31;94.80
70336;SHT31;57756;47.408;18.940;2023-04-25T06:21:11;10.35;95.01
70336;SHT31;57756;47.408;18.940;2023-04-25T06:23:37;10.37;94.99
70336;SHT31;57756;47.408;18.940;2023-04-25T06:26:02;10.41;94.49
70336;SHT31;57756;47.408;18.940;2023-04-25T06:28:28;10.53;94.51
70336;SHT31;57756;47.408;18.940;2023-04-25T06:30:54;10.60;93.11
70336;SHT31;57756;47.408;18.940;2023-04-25T06:33:19;10.53;93.37
70336;SHT31;57756;47.408;18.940;2023-04-25T06:35:46;10.58;92.86
70336;SHT31;57756;47.408;18.940;2023-04-25T06:38:12;10.63;93.65
70336;SHT31;57756;47.408;18.940;2023-04-25T06:40:37;10.69;93.14
70336;SHT31;57756;47.408;18.940;2023-04-25T06:43:03;10.80;93.95
70336;SHT31;57756;47.408;18.940;2023-04-25T06:45:28;10.84;92.98
70336;SHT31;57756;47.408;18.940;2023-04-25T06:47:54;10.93;93.18
70336;SHT31;57756;47.408;18.940;2023-04-25T06:50:20;10.90;92.72
70336;SHT31;57756;47.408;18.940;2023-04-25T06:52:45;11.00;92.49
70336;SHT31;57756;47.408;18.940;2023-04-25T06:55:11;11.03;92.43
70336;SHT31;57756;47.408;18.940;2023-04-25T06:57:36;11.11;92.24
70336;SHT31;57756;47.408;18.940;2023-04-25T07:00:03;11.31;91.99
70336;SHT31;57756;47.408;18.940;2023-04-25T07:02:30;11.50;91.72
70336;SHT31;57756;47.408;18.940;2023-04-25T07:04:56;11.75;90.78
70336;SHT31;57756;47.408;18.940;2023-04-25T07:07:25;11.85;90.00
70336;SHT31;57756;47.408;18.940;2023-04-25T07:09:50;12.04;90.19
70336;SHT31;57756;47.408;18.940;2023-04-25T07:12:16;12.14;89.13
70336;SHT31;57756;47.408;18.940;2023-04-25T07:14:41;12.24;87.72
70336;SHT31;57756;47.408;18.940;2023-04-25T07:17:07;12.26;87.89
70336;SHT31;57756;47.408;18.940;2023-04-25T07:19:33;12.30;87.91
70336;SHT31;57756;47.408;18.940;2023-04-25T07:21:58;12.36;86.29
70336;SHT31;57756;47.408;18.940;2023-04-25T07:24:24;12.47;86.31
70336;SHT31;57756;47.408;18.940;2023-04-25T07:26:49;12.79;87.29
70336;SHT31;57756;47.408;18.940;2023-04-25T07:29:15;12.76;84.82
70336;SHT31;57756;47.408;18.940;2023-04-25T07:31:40;12.93;84.61
70336;SHT31;57756;47.408;18.940;2023-04-25T07:34:06;13.06;82.50
70336;SHT31;57756;47.408;18.940;2023-04-25T07:36:32;13.34;83.92
70336;SHT31;57756;47.408;18.940;2023-04-25T07:38:58;13.50;81.82
70336;SHT31;57756;47.408;18.940;2023-04-25T07:41:23;13.77;82.75
70336;SHT31;57756;47.408;18.940;2023-04-25T07:43:49;13.81;81.42
70336;SHT31;57756;47.408;18.940;2023-04-25T07:46:14;13.58;80.48
70336;SHT31;57756;47.408;18.940;2023-04-25T07:48:40;13.70;80.40
70336;SHT31;57756;47.408;18.940;2023-04-25T07:51:06;13.74;80.56
70336;SHT31;57756;47.408;18.940;2023-04-25T07:53:32;13.61;79.90
70336;SHT31;57756;47.408;18.940;2023-04-25T07:56:00;13.62;80.76
70336;SHT31;57756;47.408;18.940;2023-04-25T07:58:25;13.58;81.21
70336;SHT31;57756;47.408;18.940;2023-04-25T08:00:51;13.54;79.85
70336;SHT31;57756;47.408;18.940;2023-04-25T08:03:16;13.62;80.23
70336;SHT31;57756;47.408;18.940;2023-04-25T08:05:41;13.43;79.55
70336;SHT31;57756;47.408;18.940;2023-04-25T08:08:07;13.48;79.59
70336;SHT31;57756;47.408;18.940;2023-04-25T08:10:33;13.57;79.65
70336;SHT31;57756;47.408;18.940;2023-04-25T08:12:59;13.67;79.91
70336;SHT31;57756;47.408;18.940;2023-04-25T08:15:25;13.88;79.11
70336;SHT31;57756;47.408;18.940;2023-04-25T08:17:50;13.86;77.81
70336;SHT31;57756;47.408;18.940;2023-04-25T08:20:16;13.99;77.94
70336;SHT31;57756;47.408;18.940;2023-04-25T08:22:41;14.02;78.53
70336;SHT31;57756;47.408;18.940;2023-04-25T08:25:07;13.95;77.73
70336;SHT31;57756;47.408;18.940;2023-04-25T08:27:33;13.92;77.53
70336;SHT31;57756;47.408;18.940;2023-04-25T08:29:58;13.92;78.16
70336;SHT31;57756;47.408;18.940;2023-04-25T08:32:24;13.98;77.95
70336;SHT31;57756;47.408;18.940;2023-04-25T08:34:49;14.06;77.59
70336;SHT31;57756;47.408;18.940;2023-04-25T08:37:16;14.30;78.20
70336;SHT31;57756;47.408;18.940;2023-04-25T08:39:41;14.43;77.61
70336;SHT31;57756;47.408;18.940;2023-04-25T08:42:07;14.26;77.67
70336;SHT31;57756;47.408;18.940;2023-04-25T08:44:36;14.18;77.78
70336;SHT31;57756;47.408;18.940;2023-04-25T08:47:03;14.22;77.93
70336;SHT31;57756;47.408;18.940;2023-04-25T08:49:31;14.20;77.00
70336;SHT31;57756;47.408;18.940;2023-04-25T08:51:59;14.28;77.09
70336;SHT31;57756;47.408;18.940;2023-04-25T08:54:27;14.50;77.54
70336;SHT31;57756;47.408;18.940;2023-04-25T08:56:54;14.57;76.74
70336;SHT31;57756;47.408;18.940;2023-04-25T08:59:21;14.75;76.18
70336;SHT31;57756;47.408;18.940;2023-04-25T09:01:49;14.70;75.94
70336;SHT31;57756;47.408;18.940;2023-04-25T09:04:15;14.57;75.58
70336;SHT31;57756;47.408;18.940;2023-04-25T09:06:41;14.81;76.18
70336;SHT31;57756;47.408;18.940;2023-04-25T09:09:08;15.21;75.08
70336;SHT31;57756;47.408;18.940;2023-04-25T09:11:37;15.25;73.86
70336;SHT31;57756;47.408;18.940;2023-04-25T09:14:13;15.31;73.62
70336;SHT31;57756;47.408;18.940;2023-04-25T09:16:58;15.25;74.22
70336;SHT31;57756;47.408;18.940;2023-04-25T09:19:29;15.49;73.27
70336;SHT31;57756;47.408;18.940;2023-04-25T09:21:59;15.73;73.19
70336;SHT31;57756;47.408;18.940;2023-04-25T09:24:35;15.54;72.38
70336;SHT31;57756;47.408;18.940;2023-04-25T09:27:03;15.83;72.64
70336;SHT31;57756;47.408;18.940;2023-04-25T09:29:30;16.15;71.94
70336;SHT31;57756;47.408;18.940;2023-04-25T09:34:48;16.00;70.62
70336;SHT31;57756;47.408;18.940;2023-04-25T09:37:32;16.17;71.34
70336;SHT31;57756;47.408;18.940;2023-04-25T09:39:59;16.39;70.52
70336;SHT31;57756;47.408;18.940;2023-04-25T09:42:28;16.30;70.20
70336;SHT31;57756;47.408;18.940;2023-04-25T09:44:57;16.52;71.27
70336;SHT31;57756;47.408;18.940;2023-04-25T09:47:24;16.52;69.20
70336;SHT31;57756;47.408;18.940;2023-04-25T09:49:51;16.42;69.65
70336;SHT31;57756;47.408;18.940;2023-04-25T09:52:21;16.30;70.00
70336;SHT31;57756;47.408;18.940;2023-04-25T09:54:48;16.42;69.38
70336;SHT31;57756;47.408;18.940;2023-04-25T09:57:22;16.62;69.99
70336;SHT31;57756;47.408;18.940;2023-04-25T09:59:49;16.41;68.25
70336;SHT31;57756;47.408;18.940;2023-04-25T10:02:17;16.21;68.66
70336;SHT31;57756;47.408;18.940;2023-04-25T10:04:46;16.11;69.95
70336;SHT31;57756;47.408;18.940;2023-04-25T10:07:13;16.12;68.60
70336;SHT31;57756;47.408;18.940;2023-04-25T10:09:39;15.97;69.12
70336;SHT31;57756;47.408;18.940;2023-04-25T10:12:06;16.18;70.26
70336;SHT31;57756;47.408;18.940;2023-04-25T10:14:33;16.42;69.68
70336;SHT31;57756;47.408;18.940;2023-04-25T10:16:59;16.30;68.60
70336;SHT31;57756;47.408;18.940;2023-04-25T10:19:26;16.30;68.89
70336;SHT31;57756;47.408;18.940;2023-04-25T10:21:58;16.26;68.16
70336;SHT31;57756;47.408;18.940;2023-04-25T10:24:27;16.41;66.69
70336;SHT31;57756;47.408;18.940;2023-04-25T10:26:53;17.01;67.36
70336;SHT31;57756;47.408;18.940;2023-04-25T10:29:23;17.32;65.92
70336;SHT31;57756;47.408;18.940;2023-04-25T10:31:49;17.34;64.15
70336;SHT31;57756;47.408;18.940;2023-04-25T10:34:16;17.93;66.21
70336;SHT31;57756;47.408;18.940;2023-04-25T10:36:42;18.00;63.76
70336;SHT31;57756;47.408;18.940;2023-04-25T10:39:08;17.97;63.19
70336;SHT31;57756;47.408;18.940;2023-04-25T10:41:46;17.83;63.35
70336;SHT31;57756;47.408;18.940;2023-04-25T10:44:13;17.63;63.13
70336;SHT31;57756;47.408;18.940;2023-04-25T10:46:39;17.83;64.65
70336;SHT31;57756;47.408;18.940;2023-04-25T10:49:07;18.21;62.28
70336;SHT31;57756;47.408;18.940;2023-04-25T10:51:34;18.79;61.90
70336;SHT31;57756;47.408;18.940;2023-04-25T10:54:03;19.54;60.17
70336;SHT31;57756;47.408;18.940;2023-04-25T11:01:36;20.55;55.90
70336;SHT31;57756;47.408;18.940;2023-04-25T11:04:02;20.53;53.97
70336;SHT31;57756;47.408;18.940;2023-04-25T11:08:53;20.10;52.58
70336;SHT31;57756;47.408;18.940;2023-04-25T11:11:19;20.19;52.93
70336;SHT31;57756;47.408;18.940;2023-04-25T11:13:47;20.13;55.16
70336;SHT31;57756;47.408;18.940;2023-04-25T11:16:13;20.24;53.31
70336;SHT31;57756;47.408;18.940;2023-04-25T11:18:43;20.58;55.33
70336;SHT31;57756;47.408;18.940;2023-04-25T11:21:09;20.91;54.26
70336;SHT31;57756;47.408;18.940;2023-04-25T11:23:34;20.02;53.81
70336;SHT31;57756;47.408;18.940;2023-04-25T11:26:00;19.68;51.61
70336;SHT31;57756;47.408;18.940;2023-04-25T11:28:28;19.47;53.86
70336;SHT31;57756;47.408;18.940;2023-04-25T11:30:54;19.11;55.91
70336;SHT31;57756;47.408;18.940;2023-04-25T11:33:23;19.04;54.76
70336;SHT31;57756;47.408;18.940;2023-04-25T11:35:50;18.54;54.42
70336;SHT31;57756;47.408;18.940;2023-04-25T11:38:16;18.43;55.19
70336;SHT31;57756;47.408;18.940;2023-04-25T11:40:42;18.41;54.72
70336;SHT31;57756;47.408;18.940;2023-04-25T11:43:09;18.35;54.53
70336;SHT31;57756;47.408;18.940;2023-04-25T11:45:36;18.34;54.71
70336;SHT31;57756;47.408;18.940;2023-04-25T11:48:02;18.73;54.86
70336;SHT31;57756;47.408;18.940;2023-04-25T11:50:28;19.81;54.79
70336;SHT31;57756;47.408;18.940;2023-04-25T11:52:56;19.82;53.71
70336;SHT31;57756;47.408;18.940;2023-04-25T11:55:21;20.22;52.27
70336;SHT31;57756;47.408;18.940;2023-04-25T11:57:49;20.45;53.20
70336;SHT31;57756;47.408;18.940;2023-04-25T12:00:17;20.19;52.75
70336;SHT31;57756;47.408;18.940;2023-04-25T12:02:47;19.54;53.11
70336;SHT31;57756;47.408;18.940;2023-04-25T12:05:15;19.57;53.56
70336;SHT31;57756;47.408;18.940;2023-04-25T12:07:41;19.88;53.45
70336;SHT31;57756;47.408;18.940;2023-04-25T12:10:12;19.78;53.92
70336;SHT31;57756;47.408;18.940;2023-04-25T12:12:40;20.00;55.11
70336;SHT31;57756;47.408;18.940;2023-04-25T12:15:18;19.74;52.73
70336;SHT31;57756;47.408;18.940;2023-04-25T12:17:47;19.19;52.16
70336;SHT31;57756;47.408;18.940;2023-04-25T12:20:15;19.02;53.13
70336;SHT31;57756;47.408;18.940;2023-04-25T12:22:42;19.00;52.75
70336;SHT31;57756;47.408;18.940;2023-04-25T12:25:13;19.40;53.14
70336;SHT31;57756;47.408;18.940;2023-04-25T12:27:39;19.24;51.03
70336;SHT31;57756;47.408;18.940;2023-04-25T12:30:09;18.98;50.65
70336;SHT31;57756;47.408;18.940;2023-04-25T12:32:36;19.28;51.22
70336;SHT31;57756;47.408;18.940;2023-04-25T12:35:02;18.71;51.89
70336;SHT31;57756;47.408;18.940;2023-04-25T12:37:28;18.93;53.24
70336;SHT31;57756;47.408;18.940;2023-04-25T12:39:54;19.02;53.68
70336;SHT31;57756;47.408;18.940;2023-04-25T12:42:19;18.98;53.38
70336;SHT31;57756;47.408;18.940;2023-04-25T12:44:45;19.30;53.73
70336;SHT31;57756;47.408;18.940;2023-04-25T12:47:11;18.96;53.93
70336;SHT31;57756;47.408;18.940;2023-04-25T12:49:37;18.43;52.60
70336;SHT31;57756;47.408;18.940;2023-04-25T12:52:03;18.55;53.72
70336;SHT31;57756;47.408;18.940;2023-04-25T12:54:28;18.64;54.45
70336;SHT31;57756;47.408;18.940;2023-04-25T12:56:54;18.69;54.61
70336;SHT31;57756;47.408;18.940;2023-04-25T12:59:20;18.56;54.35
70336;SHT31;57756;47.408;18.940;2023-04-25T13:01:46;18.41;53.67
70336;SHT31;57756;47.408;18.940;2023-04-25T13:04:12;18.30;53.60
70336;SHT31;57756;47.408;18.940;2023-04-25T13:06:37;18.31;53.17
70336;SHT31;57756;47.408;18.940;2023-04-25T13:09:03;18.30;53.68
70336;SHT31;57756;47.408;18.940;2023-04-25T13:11:28;18.21;54.22
70336;SHT31;57756;47.408;18.940;2023-04-25T13:13:55;18.37;53.24
70336;SHT31;57756;47.408;18.940;2023-04-25T13:16:21;18.34;53.01
70336;SHT31;57756;47.408;18.940;2023-04-25T13:18:46;18.31;51.45
70336;SHT31;57756;47.408;18.940;2023-04-25T13:21:12;18.28;52.34
70336;SHT31;57756;47.408;18.940;2023-04-25T13:23:37;17.90;52.05
70336;SHT31;57756;47.408;18.940;2023-04-25T13:26:03;18.00;53.52
70336;SHT31;57756;47.408;18.940;2023-04-25T13:28:29;17.90;52.58
70336;SHT31;57756;47.408;18.940;2023-04-25T13:30:54;17.75;52.61
70336;SHT31;57756;47.408;18.940;2023-04-25T13:33:20;17.69;55.49
70336;SHT31;57756;47.408;18.940;2023-04-25T13:35:48;17.62;54.07
70336;SHT31;57756;47.408;18.940;2023-04-25T13:38:22;17.46;53.93
70336;SHT31;57756;47.408;18.940;2023-04-25T13:40:48;17.36;54.82
70336;SHT31;57756;47.408;18.940;2023-04-25T13:43:14;17.36;54.87
70336;SHT31;57756;47.408;18.940;2023-04-25T13:45:40;17.34;54.85
70336;SHT31;57756;47.408;18.940;2023-04-25T13:48:06;17.25;55.05
70336;SHT31;57756;47.408;18.940;2023-04-25T13:50:31;17.31;53.95
70336;SHT31;57756;47.408;18.940;2023-04-25T13:52:57;17.28;54.23
70336;SHT31;57756;47.408;18.940;2023-04-25T13:55:22;17.34;54.90
70336;SHT31;57756;47.408;18.940;2023-04-25T13:57:48;17.42;54.75
70336;SHT31;57756;47.408;18.940;2023-04-25T14:00:13;17.51;54.03
70336;SHT31;57756;47.408;18.940;2023-04-25T14:02:39;17.53;54.16
70336;SHT31;57756;47.408;18.940;2023-04-25T14:05:05;17.45;54.20
70336;SHT31;57756;47.408;18.940;2023-04-25T14:07:33;17.25;54.94
70336;SHT31;57756;47.408;18.940;2023-04-25T14:09:58;17.12;53.73
70336;SHT31;57756;47.408;18.940;2023-04-25T14:12:24;17.04;54.28
70336;SHT31;57756;47.408;18.940;2023-04-25T14:14:50;16.52;54.28
70336;SHT31;57756;47.408;18.940;2023-04-25T14:17:16;16.49;53.70
70336;SHT31;57756;47.408;18.940;2023-04-25T14:19:41;16.52;54.49
70336;SHT31;57756;47.408;18.940;2023-04-25T14:22:11;16.48;54.49
70336;SHT31;57756;47.408;18.940;2023-04-25T14:24:36;16.51;55.47
70336;SHT31;57756;47.408;18.940;2023-04-25T14:27:02;16.51;56.60
70336;SHT31;57756;47.408;18.940;2023-04-25T14:29:27;16.45;56.09
70336;SHT31;57756;47.408;18.940;2023-04-25T14:31:53;16.45;55.19
70336;SHT31;57756;47.408;18.940;2023-04-25T14:34:19;16.51;56.39
70336;SHT31;57756;47.408;18.940;2023-04-25T14:36:45;16.48;56.75
70336;SHT31;57756;47.408;18.940;2023-04-25T14:39:10;16.35;56.73
70336;SHT31;57756;47.408;18.940;2023-04-25T14:41:37;16.33;57.11
70336;SHT31;57756;47.408;18.940;2023-04-25T14:44:03;16.19;56.52
70336;SHT31;57756;47.408;18.940;2023-04-25T14:46:28;16.12;57.03
70336;SHT31;57756;47.408;18.940;2023-04-25T14:48:54;16.05;56.73
70336;SHT31;57756;47.408;18.940;2023-04-25T14:51:21;15.94;56.99
70336;SHT31;57756;47.408;18.940;2023-04-25T14:53:46;15.98;56.77
70336;SHT31;57756;47.408;18.940;2023-04-25T14:56:12;15.91;56.35
70336;SHT31;57756;47.408;18.940;2023-04-25T14:58:39;15.86;56.43
70336;SHT31;57756;47.408;18.940;2023-04-25T15:01:05;15.96;57.01
70336;SHT31;57756;47.408;18.940;2023-04-25T15:03:32;16.00;57.41
70336;SHT31;57756;47.408;18.940;2023-04-25T15:05:57;16.01;57.74
70336;SHT31;57756;47.408;18.940;2023-04-25T15:08:23;16.05;56.70
70336;SHT31;57756;47.408;18.940;2023-04-25T15:10:48;15.88;57.16
70336;SHT31;57756;47.408;18.940;2023-04-25T15:13:14;16.01;57.19
70336;SHT31;57756;47.408;18.940;2023-04-25T15:15:40;16.01;58.32
70336;SHT31;57756;47.408;18.940;2023-04-25T15:18:06;15.96;58.97
70336;SHT31;57756;47.408;18.940;2023-04-25T15:20:31;15.76;58.06
70336;SHT31;57756;47.408;18.940;2023-04-25T15:22:57;15.59;58.81